createdAt,value
2019-02-04T00:01:21.181Z,100599.45
2019-02-04T00:03:51.115Z,100612.14
2019-02-04T00:06:20.661Z,100615.80
2019-02-04T00:08:50.112Z,100620.14
2019-02-04T00:11:19.603Z,100628.05
2019-02-04T00:13:49.059Z,100628.23
2019-02-04T00:16:19.173Z,100637.63
2019-02-04T00:18:48.814Z,100638.83
2019-02-04T00:21:18.543Z,100642.59
2019-02-04T00:23:48.353Z,100653.58
2019-02-04T00:26:17.828Z,100650.80
2019-02-04T00:28:47.291Z,100654.23
2019-02-04T00:31:16.773Z,100657.50
2019-02-04T00:33:46.311Z,100659.11
2019-02-04T00:36:15.791Z,100662.66
2019-02-04T00:38:45.437Z,100670.45
2019-02-04T00:41:14.918Z,100666.39
2019-02-04T00:43:44.818Z,100685.20
2019-02-04T00:46:14.575Z,100688.86
2019-02-04T00:48:44.064Z,100700.56
2019-02-04T00:51:13.568Z,100702.53
2019-02-04T00:53:43.050Z,100710.92
2019-02-04T00:56:12.534Z,100714.55
2019-02-04T00:58:42.359Z,100718.36
2019-02-04T01:01:14.124Z,100728.28
2019-02-04T01:03:43.614Z,100727.54
2019-02-04T01:06:13.179Z,100736.64
2019-02-04T01:08:42.650Z,100741.18
2019-02-04T01:11:12.112Z,100740.69
2019-02-04T01:13:41.618Z,100744.98
2019-02-04T01:16:11.591Z,100754.47
2019-02-04T01:18:41.081Z,100752.70
2019-02-04T01:21:10.578Z,100754.71
2019-02-04T01:23:40.046Z,100769.13
2019-02-04T01:26:09.574Z,100769.02
2019-02-04T01:28:39.242Z,100766.71
2019-02-04T01:31:08.928Z,100769.28
2019-02-04T01:33:38.466Z,100775.86
2019-02-04T01:36:07.948Z,100784.21
2019-02-04T01:38:37.554Z,100782.89
2019-02-04T01:41:07.098Z,100783.59
2019-02-04T01:43:36.646Z,100793.91
2019-02-04T01:46:06.390Z,100791.16
2019-02-04T01:48:35.900Z,100802.01
2019-02-04T01:51:05.395Z,100806.52
2019-02-04T01:53:34.930Z,100802.45
2019-02-04T01:56:05.101Z,100812.09
2019-02-04T01:58:34.597Z,100813.20
2019-02-04T02:01:04.080Z,100819.42
2019-02-04T02:03:33.558Z,100821.22
2019-02-04T02:06:03.035Z,100822.11
2019-02-04T02:08:34.297Z,100823.98
2019-02-04T02:11:03.746Z,100826.66
2019-02-04T02:13:33.235Z,100824.78
2019-02-04T02:16:02.717Z,100826.02
2019-02-04T02:18:32.224Z,100831.70
2019-02-04T02:21:01.725Z,100831.41
2019-02-04T02:23:31.739Z,100835.66
2019-02-04T02:26:01.478Z,100832.59
2019-02-04T02:28:30.962Z,100834.76
2019-02-04T02:31:00.730Z,100832.34
2019-02-04T02:33:30.560Z,100838.28
2019-02-04T02:36:00.323Z,100834.59
2019-02-04T02:38:30.195Z,100845.78
2019-02-04T02:40:59.905Z,100840.59
2019-02-04T02:43:29.465Z,100843.05
2019-02-04T02:45:59.284Z,100839.25
2019-02-04T02:48:29.117Z,100841.29
2019-02-04T02:51:00.218Z,100835.73
2019-02-04T02:53:29.789Z,100844.52
2019-02-04T02:55:59.612Z,100844.94
2019-02-04T02:58:29.174Z,100848.31
2019-02-04T03:00:58.648Z,100845.00
2019-02-04T03:03:28.133Z,100850.20
2019-02-04T03:05:57.979Z,100846.55
2019-02-04T03:08:27.833Z,100850.20
2019-02-04T03:10:57.643Z,100854.16
2019-02-04T03:13:27.149Z,100851.64
2019-02-04T03:15:58.251Z,100855.77
2019-02-04T03:18:29.853Z,100859.09
2019-02-04T03:20:59.328Z,100859.10
2019-02-04T03:23:29.417Z,100863.98
2019-02-04T03:25:58.872Z,100869.88
2019-02-04T03:28:28.354Z,100873.14
2019-02-04T03:30:58.363Z,100881.73
2019-02-04T03:33:28.035Z,100887.27
2019-02-04T03:35:57.498Z,100891.22
2019-02-04T03:38:27.004Z,100893.71
2019-02-04T03:40:56.485Z,100899.66
2019-02-04T03:43:25.991Z,100902.52
2019-02-04T03:45:55.721Z,100911.97
2019-02-04T03:48:25.575Z,100914.79
2019-02-04T03:50:55.069Z,100912.52
2019-02-04T03:53:26.181Z,100920.98
2019-02-04T03:55:55.685Z,100924.88
2019-02-04T03:58:25.148Z,100933.03
2019-02-04T04:00:55.354Z,100931.39
2019-02-04T04:03:24.962Z,100934.23
2019-02-04T04:05:54.919Z,100934.92
2019-02-04T04:08:24.693Z,100943.19
2019-02-04T04:10:54.159Z,100941.36
2019-02-04T04:13:23.672Z,100943.58
2019-02-04T04:15:53.216Z,100946.63
2019-02-04T04:18:22.697Z,100949.09
2019-02-04T04:20:52.165Z,100951.34
2019-02-04T04:23:22.032Z,100959.00
2019-02-04T04:25:51.830Z,100953.85
2019-02-04T04:28:21.680Z,100961.46
2019-02-04T04:30:51.515Z,100962.66
2019-02-04T04:33:21.061Z,100967.48
2019-02-04T04:35:50.884Z,100970.62
2019-02-04T04:38:20.358Z,100975.63
2019-02-04T04:40:50.205Z,100980.27
2019-02-04T04:43:19.688Z,100991.64
2019-02-04T04:45:49.166Z,100992.33
2019-02-04T04:48:26.321Z,100992.08
2019-02-04T04:50:49.814Z,100994.03
2019-02-04T04:53:19.656Z,100995.72
2019-02-04T04:55:49.693Z,101000.37
2019-02-04T04:58:19.166Z,101002.43
2019-02-04T05:00:49.729Z,101001.11
2019-02-04T05:03:26.748Z,101003.39
2019-02-04T05:05:59.803Z,101009.35
2019-02-04T05:08:34.350Z,101014.11
2019-02-04T05:11:04.262Z,101019.00
2019-02-04T05:13:35.455Z,101015.30
2019-02-04T05:16:11.241Z,101018.00
2019-02-04T05:18:52.431Z,101018.62
2019-02-04T05:21:23.621Z,101021.21
2019-02-04T05:23:57.115Z,101018.06
2019-02-04T05:26:39.757Z,101026.67
2019-02-04T05:29:07.470Z,101032.76
2019-02-04T05:31:44.158Z,101026.47
2019-02-04T05:34:19.079Z,101033.27
2019-02-04T05:36:51.464Z,101033.20
2019-02-04T05:39:26.362Z,101037.70
2019-02-04T05:41:57.625Z,101034.83
2019-02-04T05:44:36.402Z,101032.70
2019-02-04T05:47:11.403Z,101034.44
2019-02-04T05:49:46.642Z,101035.07
2019-02-04T05:52:26.884Z,101039.08
2019-02-04T05:55:07.938Z,101046.98
2019-02-04T05:57:55.791Z,101055.35
2019-02-04T06:00:27.314Z,101047.87
2019-02-04T06:03:00.835Z,101054.83
2019-02-04T06:05:30.500Z,101059.09
2019-02-04T06:08:07.005Z,101065.40
2019-02-04T06:10:38.594Z,101065.95
2019-02-04T06:13:09.626Z,101065.98
2019-02-04T06:15:40.439Z,101063.98
2019-02-04T06:18:09.913Z,101064.31
2019-02-04T06:20:39.677Z,101066.73
2019-02-04T06:23:09.200Z,101067.30
2019-02-04T06:25:39.689Z,101066.70
2019-02-04T06:28:09.161Z,101065.08
2019-02-04T06:30:38.684Z,101076.30
2019-02-04T06:33:08.221Z,101069.13
2019-02-04T06:35:37.730Z,101076.53
2019-02-04T06:38:07.203Z,101074.53
2019-02-04T06:40:36.690Z,101077.22
2019-02-04T06:43:06.178Z,101087.33
2019-02-04T06:45:35.656Z,101090.13
2019-02-04T06:48:05.686Z,101096.92
2019-02-04T06:50:35.170Z,101098.97
2019-02-04T06:53:04.643Z,101102.55
2019-02-04T06:55:34.301Z,101106.88
2019-02-04T06:58:03.777Z,101110.70
2019-02-04T07:00:33.265Z,101110.36
2019-02-04T07:03:03.020Z,101106.66
2019-02-04T07:05:43.219Z,101115.51
2019-02-04T07:08:04.309Z,101119.84
2019-02-04T07:10:33.893Z,101129.06
2019-02-04T07:13:03.691Z,101127.57
2019-02-04T07:15:33.519Z,101128.52
2019-02-04T07:18:02.994Z,101144.11
2019-02-04T07:20:32.488Z,101143.25
2019-02-04T07:23:01.947Z,101150.81
2019-02-04T07:25:31.421Z,101150.73
2019-02-04T07:28:00.886Z,101152.12
2019-02-04T07:30:30.554Z,101160.34
2019-02-04T07:33:00.344Z,101161.45
2019-02-04T07:35:29.896Z,101161.78
2019-02-04T07:37:59.698Z,101158.30
2019-02-04T07:40:33.939Z,101158.54
2019-02-04T07:43:03.700Z,101164.60
2019-02-04T07:45:33.453Z,101163.25
2019-02-04T07:48:02.913Z,101164.39
2019-02-04T07:50:32.390Z,101163.78
2019-02-04T07:53:02.133Z,101170.57
2019-02-04T07:55:31.614Z,101171.66
2019-02-04T07:58:01.101Z,101183.28
2019-02-04T08:00:35.283Z,101174.27
2019-02-04T08:03:09.594Z,101176.69
2019-02-04T08:05:42.478Z,101176.16
2019-02-04T08:08:18.342Z,101181.52
2019-02-04T08:11:01.291Z,101184.21
2019-02-04T08:13:33.925Z,101182.63
2019-02-04T08:16:19.047Z,101183.78
2019-02-04T08:19:03.782Z,101185.45
2019-02-04T08:21:39.151Z,101186.15
2019-02-04T08:24:13.571Z,101186.05
2019-02-04T08:26:47.159Z,101186.11
2019-02-04T08:29:20.091Z,101188.19
2019-02-04T08:32:03.631Z,101197.88
2019-02-04T08:34:36.443Z,101198.91
2019-02-04T08:37:12.629Z,101203.18
2019-02-04T08:39:44.416Z,101202.97
2019-02-04T08:42:23.701Z,101197.58
2019-02-04T08:44:58.907Z,101208.41
2019-02-04T08:47:35.461Z,101211.64
2019-02-04T08:50:16.793Z,101213.63
2019-02-04T08:52:49.355Z,101215.95
2019-02-04T08:55:27.949Z,101223.98
2019-02-04T08:58:02.622Z,101223.10
2019-02-04T09:00:46.215Z,101228.02
2019-02-04T09:03:18.018Z,101226.87
2019-02-04T09:05:53.817Z,101233.50
2019-02-04T09:08:34.933Z,101236.78
2019-02-04T09:11:20.161Z,101237.37
2019-02-04T09:14:06.814Z,101241.20
2019-02-04T09:16:51.060Z,101248.08
2019-02-04T09:19:25.207Z,101248.07
2019-02-04T09:22:00.907Z,101251.13
2019-02-04T09:24:40.385Z,101246.38
2019-02-04T09:27:16.398Z,101247.75
2019-02-04T09:29:54.590Z,101250.61
2019-02-04T09:32:29.983Z,101248.99
2019-02-04T09:34:57.997Z,101251.66
2019-02-04T09:37:39.281Z,101256.50
2019-02-04T09:40:31.627Z,101260.73
2019-02-04T09:43:12.044Z,101255.98
2019-02-04T09:45:52.297Z,101260.56
2019-02-04T09:48:30.495Z,101257.03
2019-02-04T09:51:14.651Z,101257.36
2019-02-04T09:53:48.760Z,101268.69
2019-02-04T09:56:30.356Z,101274.73
2019-02-04T09:59:04.932Z,101268.69
2019-02-04T10:01:43.178Z,101269.03
2019-02-04T10:04:20.678Z,101263.36
2019-02-04T10:06:55.334Z,101267.09
2019-02-04T10:09:26.305Z,101268.42
2019-02-04T10:12:00.576Z,101267.25
2019-02-04T10:14:33.429Z,101270.08
2019-02-04T10:17:02.894Z,101279.98
2019-02-04T10:19:32.646Z,101274.24
2019-02-04T10:22:02.110Z,101275.69
2019-02-04T10:24:31.576Z,101279.02
2019-02-04T10:27:01.091Z,101279.56
2019-02-04T10:29:30.901Z,101271.63
2019-02-04T10:32:00.394Z,101268.30
2019-02-04T10:34:30.174Z,101264.91
2019-02-04T10:36:59.679Z,101264.31
2019-02-04T10:39:29.164Z,101264.34
2019-02-04T10:41:58.616Z,101268.84
2019-02-04T10:44:28.080Z,101258.92
2019-02-04T10:46:57.872Z,101262.94
2019-02-04T10:49:27.319Z,101259.78
2019-02-04T10:51:57.071Z,101257.95
2019-02-04T10:54:26.592Z,101257.95
2019-02-04T10:56:56.117Z,101256.94
2019-02-04T10:59:25.564Z,101251.67
2019-02-04T11:01:55.568Z,101251.67
2019-02-04T11:04:25.412Z,101256.73
2019-02-04T11:06:55.367Z,101252.84
2019-02-04T11:09:24.834Z,101257.86
2019-02-04T11:11:54.325Z,101264.17
2019-02-04T11:14:23.876Z,101263.95
2019-02-04T11:16:53.911Z,101264.40
2019-02-04T11:19:23.328Z,101258.95
2019-02-04T11:21:52.842Z,101258.95
2019-02-04T11:24:22.604Z,101269.19
2019-02-04T11:26:52.092Z,101282.91
2019-02-04T11:29:21.594Z,101269.12
2019-02-04T11:31:51.083Z,101270.86
2019-02-04T11:34:20.525Z,101269.23
2019-02-04T11:36:50.007Z,101261.31
2019-02-04T11:39:20.149Z,101258.98
2019-02-04T11:41:49.958Z,101256.64
2019-02-04T11:44:20.128Z,101256.49
2019-02-04T11:46:49.686Z,101261.65
2019-02-04T11:49:19.188Z,101267.78
2019-02-04T11:51:48.692Z,101262.97
2019-02-04T11:54:18.526Z,101270.55
2019-02-04T11:56:47.998Z,101271.11
2019-02-04T11:59:17.643Z,101273.11
2019-02-04T12:01:47.113Z,101269.15
2019-02-04T12:04:16.569Z,101276.61
2019-02-04T12:06:46.060Z,101275.28
2019-02-04T12:09:15.522Z,101275.70
2019-02-04T12:11:45.111Z,101276.28
2019-02-04T12:14:14.806Z,101278.22
2019-02-04T12:16:44.282Z,101264.28
2019-02-04T12:19:13.754Z,101262.54
2019-02-04T12:21:43.218Z,101260.99
2019-02-04T12:24:13.015Z,101262.98
2019-02-04T12:26:42.807Z,101255.31
2019-02-04T12:29:12.280Z,101254.44
2019-02-04T12:31:42.032Z,101251.88
2019-02-04T12:34:11.512Z,101250.78
2019-02-04T12:36:41.015Z,101258.72
2019-02-04T12:39:12.103Z,101263.94
2019-02-04T12:41:42.199Z,101255.48
2019-02-04T12:44:11.144Z,101259.99
2019-02-04T12:46:40.657Z,101261.59
2019-02-04T12:49:11.773Z,101252.09
2019-02-04T12:51:41.574Z,101251.45
2019-02-04T12:54:11.050Z,101249.28
2019-02-04T12:56:40.809Z,101249.20
2019-02-04T12:59:10.272Z,101239.81
2019-02-04T13:01:39.814Z,101241.03
2019-02-04T13:04:09.381Z,101240.91
2019-02-04T13:06:38.837Z,101237.72
2019-02-04T13:09:08.574Z,101233.64
2019-02-04T13:11:38.024Z,101233.55
2019-02-04T13:14:07.623Z,101239.42
2019-02-04T13:16:37.087Z,101229.05
2019-02-04T13:19:06.840Z,101225.69
2019-02-04T13:21:44.983Z,101233.87
2019-02-04T13:24:07.457Z,101223.42
2019-02-04T13:26:36.932Z,101230.71
2019-02-04T13:29:06.472Z,101228.27
2019-02-04T13:31:35.915Z,101216.99
2019-02-04T13:34:05.830Z,101228.15
2019-02-04T13:36:35.294Z,101228.65
2019-02-04T13:39:07.616Z,101232.31
2019-02-04T13:41:37.074Z,101224.47
2019-02-04T13:44:08.565Z,101220.12
2019-02-04T13:46:38.079Z,101216.42
2019-02-04T13:49:07.875Z,101213.54
2019-02-04T13:51:37.604Z,158158.91
2019-02-04T13:54:07.108Z,158136.84
2019-02-04T13:56:36.551Z,158143.31
2019-02-04T13:59:06.008Z,158131.64
2019-02-04T14:01:35.543Z,158158.91
2019-02-04T14:04:05.430Z,158134.27
2019-02-04T14:06:34.953Z,158096.66
2019-02-04T14:09:07.659Z,158187.45
2019-02-04T14:11:37.112Z,158069.41
2019-02-04T14:14:06.843Z,157998.09
2019-02-04T14:16:36.645Z,157998.09
2019-02-04T14:19:06.408Z,157983.84
2019-02-04T14:21:36.160Z,157890.48
2019-02-04T14:24:05.625Z,157868.44
2019-02-04T14:26:35.113Z,157881.44
2019-02-04T14:29:04.586Z,157922.92
2019-02-04T14:31:35.414Z,157898.25
2019-02-04T14:34:06.521Z,157794.59
2019-02-04T14:36:36.013Z,157737.59
2019-02-04T14:39:08.411Z,157782.92
2019-02-04T14:41:37.896Z,157807.53
2019-02-04T14:44:08.176Z,157802.34
2019-02-04T14:46:46.674Z,157794.59
2019-02-04T14:49:44.877Z,157808.87
2019-02-04T14:52:29.934Z,157745.36
2019-02-04T14:55:09.000Z,157639.06
2019-02-04T14:57:56.626Z,157648.16
2019-02-04T15:00:38.383Z,157627.41
2019-02-04T15:03:20.184Z,157648.16
2019-02-04T15:06:11.495Z,157598.91
2019-02-04T15:09:01.907Z,157552.31
2019-02-04T15:11:37.469Z,157481.11
2019-02-04T15:14:18.932Z,157400.81
2019-02-04T15:16:57.467Z,157360.67
2019-02-04T15:19:45.511Z,157321.88
2019-02-04T15:22:33.424Z,157275.28
2019-02-04T15:25:09.524Z,157251.98
2019-02-04T15:28:00.507Z,157201.55
2019-02-04T15:30:51.079Z,157198.94
2019-02-04T15:33:26.335Z,157174.36
2019-02-04T15:36:30.753Z,157117.48
2019-02-04T15:39:04.671Z,157073.47
2019-02-04T15:41:43.229Z,157028.25
2019-02-04T15:44:41.371Z,156984.25
2019-02-04T15:47:13.995Z,156968.78
2019-02-04T15:49:50.976Z,156936.42
2019-02-04T15:52:20.523Z,156905.41
2019-02-04T15:54:50.377Z,156887.31
2019-02-04T15:57:20.210Z,156873.13
2019-02-04T15:59:49.694Z,156855.03
2019-02-04T16:02:19.155Z,156825.31
2019-02-04T16:04:48.628Z,156798.16
2019-02-04T16:07:18.072Z,156754.23
2019-02-04T16:09:47.583Z,156737.44
2019-02-04T16:12:17.471Z,156718.06
2019-02-04T16:14:46.941Z,156699.98
2019-02-04T16:17:16.396Z,156698.66
2019-02-04T16:19:46.436Z,156681.91
2019-02-04T16:22:15.914Z,156683.17
2019-02-04T16:24:45.454Z,156668.98
2019-02-04T16:27:15.209Z,156656.03
2019-02-04T16:29:44.744Z,156644.41
2019-02-04T16:32:14.252Z,156632.78
2019-02-04T16:34:43.777Z,156619.88
2019-02-04T16:37:13.273Z,156596.63
2019-02-04T16:39:42.783Z,156556.62
2019-02-04T16:42:12.254Z,156511.42
2019-02-04T16:44:41.779Z,156493.34
2019-02-04T16:47:11.238Z,156453.31
2019-02-04T16:49:41.035Z,156412.00
2019-02-04T16:52:10.493Z,156384.94
2019-02-04T16:54:39.955Z,156362.98
2019-02-04T16:57:09.404Z,156338.47
2019-02-04T16:59:38.873Z,156320.41
2019-02-04T17:02:08.323Z,156290.72
2019-02-04T17:04:37.821Z,156267.50
2019-02-04T17:07:07.345Z,156241.72
2019-02-04T17:09:37.172Z,156227.50
2019-02-04T17:12:07.006Z,156210.77
2019-02-04T17:14:36.550Z,156183.66
2019-02-04T17:17:06.005Z,156174.61
2019-02-04T17:19:35.491Z,156174.61
2019-02-04T17:22:04.969Z,156169.48
2019-02-04T17:24:34.814Z,156161.72
2019-02-04T17:27:04.367Z,156141.11
2019-02-04T17:29:33.844Z,156138.50
2019-02-04T17:32:03.337Z,156125.61
2019-02-04T17:34:33.000Z,156110.16
2019-02-04T17:37:02.488Z,156103.72
2019-02-04T17:39:32.251Z,156088.23
2019-02-04T17:42:02.214Z,156077.91
2019-02-04T17:44:32.012Z,156074.06
2019-02-04T17:47:01.518Z,156066.30
2019-02-04T17:49:31.011Z,156056.02
2019-02-04T17:52:00.513Z,156050.86
2019-02-04T17:54:30.258Z,156048.25
2019-02-04T17:57:00.057Z,156036.64
2019-02-04T17:59:29.965Z,156035.36
2019-02-04T18:01:59.459Z,156021.20
2019-02-04T18:04:29.811Z,156012.16
2019-02-04T18:06:59.336Z,155999.28
2019-02-04T18:09:28.886Z,155982.50
2019-02-04T18:11:58.364Z,155972.19
2019-02-04T18:14:28.133Z,155965.75
2019-02-04T18:16:57.616Z,155952.86
2019-02-04T18:19:27.114Z,155938.70
2019-02-04T18:21:57.270Z,155929.66
2019-02-04T18:24:27.073Z,155919.38
2019-02-04T18:26:57.417Z,155925.81
2019-02-04T18:29:26.897Z,155916.78
2019-02-04T18:31:56.585Z,155938.70
2019-02-04T18:34:26.062Z,155950.31
2019-02-04T18:36:55.595Z,155949.03
2019-02-04T18:39:25.134Z,155967.06
2019-02-04T18:41:55.696Z,155960.58
2019-02-04T18:44:25.201Z,155958.02
2019-02-04T18:46:54.717Z,155965.75
2019-02-04T18:49:24.643Z,155954.14
2019-02-04T18:51:54.700Z,155954.14
2019-02-04T18:54:24.443Z,155942.53
2019-02-04T18:56:53.951Z,155929.66
2019-02-04T18:59:23.514Z,155898.73
2019-02-04T19:01:53.714Z,155874.27
2019-02-04T19:04:23.191Z,155844.62
2019-02-04T19:06:52.987Z,155851.06
2019-02-04T19:09:22.466Z,155849.78
2019-02-04T19:11:52.081Z,155858.78
2019-02-04T19:14:21.497Z,155842.06
2019-02-04T19:16:51.547Z,155844.62
2019-02-04T19:19:21.038Z,155836.91
2019-02-04T19:21:50.540Z,155824.03
2019-02-04T19:24:20.164Z,155804.67
2019-02-04T19:26:49.715Z,155795.69
2019-02-04T19:29:19.175Z,155778.92
2019-02-04T19:31:49.221Z,155768.59
2019-02-04T19:34:18.750Z,155736.42
2019-02-04T19:36:49.332Z,155738.98
2019-02-04T19:39:19.222Z,155719.67
2019-02-04T19:41:48.784Z,155702.92
2019-02-04T19:44:18.443Z,155708.08
2019-02-04T19:46:47.900Z,155708.08
2019-02-04T19:51:10.678Z,155719.67
2019-02-04T19:53:37.069Z,155722.22
2019-02-04T19:56:03.457Z,155745.41
2019-02-04T19:58:29.328Z,155764.77
2019-02-04T20:00:55.431Z,155772.48
2019-02-04T20:03:21.317Z,155760.89
2019-02-04T20:05:47.223Z,155731.27
2019-02-04T20:08:13.221Z,155706.80
2019-02-04T20:10:39.218Z,155700.37
2019-02-04T20:13:05.798Z,155695.20
2019-02-04T20:15:32.349Z,155681.02
2019-02-04T20:17:58.425Z,155674.58
2019-02-04T20:20:25.009Z,155654.00
2019-02-04T20:22:51.063Z,155662.98
2019-02-04T20:25:19.475Z,155650.11
2019-02-04T20:27:45.705Z,155623.09
2019-02-04T20:30:17.806Z,155605.08
2019-02-04T20:32:44.154Z,155592.16
2019-02-04T20:35:10.368Z,155585.73
2019-02-04T20:37:36.263Z,155566.44
2019-02-04T20:40:05.520Z,155535.55
2019-02-04T20:42:31.498Z,155538.09
2019-02-04T20:44:57.509Z,155543.27
2019-02-04T20:47:23.418Z,155544.53
2019-02-04T20:49:49.402Z,155534.28
2019-02-04T20:52:16.011Z,155525.23
2019-02-04T20:54:45.016Z,155507.22
2019-02-04T20:57:09.693Z,155529.13
2019-02-04T20:59:35.839Z,155514.94
2019-02-04T21:02:01.738Z,155502.06
2019-02-04T21:04:27.630Z,155486.66
2019-02-04T21:06:56.075Z,155496.91
2019-02-04T21:09:21.678Z,155513.66
2019-02-04T21:11:48.597Z,155514.94
2019-02-04T21:14:14.471Z,155496.91
2019-02-04T21:16:40.358Z,155511.09
2019-02-04T21:19:06.277Z,155520.09
2019-02-04T21:21:32.169Z,155549.69
2019-02-04T21:23:58.069Z,155553.56
2019-02-04T21:26:23.979Z,155548.41
2019-02-04T21:28:49.860Z,155525.23
2019-02-04T21:31:16.365Z,155509.83
2019-02-04T21:33:42.523Z,155503.39
2019-02-04T21:36:08.411Z,155496.91
2019-02-04T21:38:34.275Z,155491.81
2019-02-04T21:41:01.069Z,155471.19
2019-02-04T21:43:27.029Z,155478.89
2019-02-04T21:45:52.909Z,155464.75
2019-02-04T21:48:19.147Z,155459.61
2019-02-04T21:50:45.321Z,155457.06
2019-02-04T21:53:11.222Z,155458.33
2019-02-04T21:55:37.465Z,155459.61
2019-02-04T21:58:05.053Z,155471.19
2019-02-04T22:00:33.931Z,155468.64
2019-02-04T22:03:00.112Z,155463.48
2019-02-04T22:05:28.494Z,155463.48
2019-02-04T22:07:54.484Z,155441.59
2019-02-04T22:10:22.146Z,155445.47
2019-02-04T22:12:48.090Z,155451.91
2019-02-04T22:15:13.965Z,155475.06
2019-02-04T22:17:39.941Z,155468.64
2019-02-04T22:20:09.117Z,155475.06
2019-02-04T22:22:35.006Z,155468.64
2019-02-04T22:25:00.924Z,155478.89
2019-02-04T22:27:27.421Z,155489.20
2019-02-04T22:29:53.303Z,155494.36
2019-02-04T22:32:19.456Z,155495.64
2019-02-04T22:34:45.884Z,155487.94
2019-02-04T22:37:12.104Z,155478.89
2019-02-04T22:39:37.983Z,155467.31
2019-02-04T22:42:03.863Z,155476.34
2019-02-04T22:44:29.742Z,155468.64
2019-02-04T22:46:55.647Z,155467.31
2019-02-04T22:49:21.524Z,155458.33
2019-02-04T22:51:48.049Z,155462.20
2019-02-04T22:54:13.967Z,155469.91
2019-02-04T22:56:39.859Z,155478.89
2019-02-04T22:59:05.840Z,155468.64
2019-02-04T23:01:35.785Z,155485.33
2019-02-04T23:04:01.668Z,155478.89
2019-02-04T23:06:27.567Z,155468.64
2019-02-04T23:08:53.839Z,155472.47
2019-02-04T23:11:19.776Z,155467.31
2019-02-04T23:13:45.680Z,155463.48
2019-02-04T23:16:11.814Z,155493.09
2019-02-04T23:18:37.724Z,155491.81
2019-02-04T23:21:03.613Z,155491.81
2019-02-04T23:23:29.516Z,155468.64
2019-02-04T23:25:55.763Z,155484.05
2019-02-04T23:28:21.992Z,155500.78
2019-02-04T23:30:47.924Z,155502.06
2019-02-04T23:33:13.810Z,155508.50
2019-02-04T23:35:39.674Z,155500.78
2019-02-04T23:38:05.680Z,155495.64
2019-02-04T23:40:31.551Z,155489.20
2019-02-04T23:42:57.542Z,155493.09
2019-02-04T23:45:23.420Z,155486.66
2019-02-04T23:47:49.301Z,155511.09
2019-02-04T23:50:15.969Z,155522.69
2019-02-04T23:52:41.846Z,155545.86
2019-02-04T23:55:09.525Z,155574.14
2019-02-04T23:57:35.404Z,155599.92
